Time;durP1;ratioP1;P1;durP2;ratioP2;P2;SDS_P1;SDS_P2;PMS_P1;PMS_P2;Temp;Humidity;BMP_temperature;BMP_pressure;BME280_temperature;BME280_humidity;BME280_pressure;Samples;Min_cycle;Max_cycle;Signal;HPM_P1;HPM_P2
2022/12/19 00:04:51;;;;;;;18.65;13.23;;;4.30;86.30;;;;;;10859111;32;20016;-74
2022/12/19 00:10:59;;;;;;;16.33;13.32;;;4.30;86.30;;;;;;10845555;32;20066;-74
2022/12/19 00:17:01;;;;;;;21.73;14.87;;;4.30;86.40;;;;;;10871331;32;20038;-74
2022/12/19 00:23:03;;;;;;;20.33;14.02;;;4.30;86.50;;;;;;10495485;27;12047925;-74
2022/12/19 00:29:07;;;;;;;17.35;14.15;;;4.20;86.50;;;;;;10830183;32;20382;-74
2022/12/19 00:35:09;;;;;;;17.60;13.25;;;4.30;86.40;;;;;;10830204;32;20320;-74
2022/12/19 00:41:22;;;;;;;11.45;8.43;;;4.20;86.50;;;;;;10817433;32;20021;-74
2022/12/19 00:47:26;;;;;;;17.55;12.82;;;4.20;86.80;;;;;;10835892;32;20035;-74
2022/12/19 00:53:28;;;;;;;14.82;11.70;;;4.20;86.90;;;;;;10857538;32;20386;-74
2022/12/19 00:59:32;;;;;;;13.07;10.02;;;4.20;87.00;;;;;;10869684;32;20044;-74
2022/12/19 01:05:34;;;;;;;14.18;7.62;;;4.30;86.90;;;;;;10869535;32;20472;-74
2022/12/19 01:17:58;;;;;;;13.50;10.07;;;4.30;86.90;;;;;;10869085;32;20057;-74
2022/12/19 01:24:01;;;;;;;15.10;10.43;;;4.30;86.90;;;;;;10868912;32;20398;-75
2022/12/19 01:30:05;;;;;;;14.52;9.88;;;4.30;86.90;;;;;;10868720;32;20443;-74
2022/12/19 01:36:07;;;;;;;12.93;10.27;;;4.30;87.00;;;;;;10855236;32;20027;-74
2022/12/19 01:42:16;;;;;;;13.85;10.05;;;4.30;87.20;;;;;;10868304;32;20058;-74
2022/12/19 01:48:34;;;;;;;14.82;8.02;;;4.30;87.30;;;;;;10854141;32;20406;-75
2022/12/19 01:54:39;;;;;;;16.55;8.45;;;4.30;87.30;;;;;;10867812;32;20023;-74
2022/12/19 02:00:43;;;;;;;18.73;9.15;;;4.40;87.30;;;;;;10867710;32;20027;-74
2022/12/19 02:06:45;;;;;;;12.27;7.70;;;4.30;87.20;;;;;;10867504;32;20019;-74
2022/12/19 02:12:48;;;;;;;10.80;6.30;;;4.30;87.10;;;;;;10853589;32;20430;-74
2022/12/19 02:19:23;;;;;;;9.63;6.28;;;4.30;87.10;;;;;;10867077;32;20042;-75
2022/12/19 02:26:02;;;;;;;9.70;7.25;;;4.20;87.20;;;;;;10866969;32;20361;-74
2022/12/19 02:32:15;;;;;;;12.30;7.47;;;4.20;87.20;;;;;;10866877;32;20047;-74
2022/12/19 02:38:47;;;;;;;11.30;7.18;;;4.20;87.20;;;;;;10866790;32;20055;-74
2022/12/19 02:44:51;;;;;;;13.53;9.30;;;4.10;87.20;;;;;;10862612;32;20308;-74
2022/12/19 02:50:53;;;;;;;13.18;9.27;;;4.10;87.30;;;;;;10866391;32;20042;-74
2022/12/19 02:57:07;;;;;;;14.30;9.23;;;4.20;87.30;;;;;;10867049;32;20024;-74
2022/12/19 03:03:19;;;;;;;11.15;7.85;;;4.20;87.40;;;;;;10873842;32;20019;-75
2022/12/19 03:09:54;;;;;;;12.02;7.07;;;4.20;87.30;;;;;;10873732;32;20031;-74
2022/12/19 03:15:58;;;;;;;14.50;8.77;;;4.20;87.20;;;;;;10873427;32;20020;-74
2022/12/19 03:22:00;;;;;;;16.62;9.80;;;4.20;87.10;;;;;;10873098;32;20020;-74
2022/12/19 03:28:10;;;;;;;12.70;7.10;;;4.10;87.00;;;;;;10873025;32;20015;-74
2022/12/19 03:34:27;;;;;;;10.77;7.05;;;4.20;87.00;;;;;;10859093;32;20428;-75
2022/12/19 03:40:30;;;;;;;12.95;9.45;;;4.30;86.90;;;;;;10872516;32;20034;-74
2022/12/19 03:46:35;;;;;;;12.82;8.65;;;4.40;86.90;;;;;;10869916;32;20035;-75
2022/12/19 03:52:53;;;;;;;10.63;6.40;;;4.50;86.90;;;;;;10872056;32;20042;-74
2022/12/19 03:59:31;;;;;;;12.68;9.23;;;4.60;86.70;;;;;;10872007;32;20043;-74
2022/12/19 04:05:37;;;;;;;10.63;8.13;;;4.40;86.70;;;;;;10754059;32;20096;-74
2022/12/19 04:11:44;;;;;;;11.12;8.38;;;4.50;86.40;;;;;;10756175;33;20399;-74
2022/12/19 04:17:56;;;;;;;13.05;8.68;;;4.60;86.30;;;;;;10740390;33;20399;-74
2022/12/19 04:24:06;;;;;;;15.60;10.52;;;4.70;86.00;;;;;;10756919;33;20021;-74
2022/12/19 04:30:11;;;;;;;12.50;9.43;;;4.70;85.70;;;;;;10757255;33;20052;-75
2022/12/19 04:36:13;;;;;;;13.85;9.68;;;4.80;85.50;;;;;;10756988;33;20024;-74
2022/12/19 04:42:15;;;;;;;11.30;7.32;;;5.00;85.70;;;;;;10846619;32;20050;-74
2022/12/19 04:48:17;;;;;;;11.25;7.22;;;5.20;85.70;;;;;;10857073;32;20429;-74
2022/12/19 04:54:20;;;;;;;10.02;6.47;;;5.20;85.60;;;;;;10870055;32;20015;-74
2022/12/19 05:00:22;;;;;;;11.98;8.88;;;5.30;86.10;;;;;;10869829;32;20008;-74
2022/12/19 05:06:24;;;;;;;8.18;5.78;;;5.30;85.80;;;;;;10869594;32;20046;-75
2022/12/19 05:12:28;;;;;;;9.85;6.47;;;5.20;85.60;;;;;;10855647;32;20043;-75
2022/12/19 05:18:30;;;;;;;13.98;10.02;;;4.70;85.80;;;;;;10869248;32;20019;-74
2022/12/19 05:24:32;;;;;;;12.05;8.35;;;4.50;86.10;;;;;;10869007;32;20024;-74
2022/12/19 05:30:34;;;;;;;14.18;10.50;;;4.70;86.40;;;;;;10867255;32;20377;-74
2022/12/19 05:36:36;;;;;;;13.15;9.20;;;5.10;86.30;;;;;;10867230;32;20047;-75
2022/12/19 05:42:38;;;;;;;13.10;9.05;;;5.20;85.40;;;;;;10854611;32;20020;-74
2022/12/19 05:48:40;;;;;;;14.55;9.13;;;5.30;85.00;;;;;;10868065;32;20042;-74
2022/12/19 05:54:42;;;;;;;12.15;7.65;;;5.40;84.80;;;;;;10867327;32;20027;-74
2022/12/19 06:00:44;;;;;;;14.45;11.25;;;5.60;84.90;;;;;;10867819;32;20429;-74
2022/12/19 06:06:46;;;;;;;10.77;7.93;;;5.60;85.40;;;;;;10867662;32;20016;-74
2022/12/19 06:12:50;;;;;;;23.30;13.50;;;5.70;85.10;;;;;;10867338;32;20011;-74
2022/12/19 06:18:52;;;;;;;17.60;12.27;;;5.70;84.70;;;;;;10867093;32;20015;-74
2022/12/19 06:24:54;;;;;;;14.52;10.20;;;5.80;84.40;;;;;;10853985;32;20051;-75
2022/12/19 06:30:58;;;;;;;17.27;13.45;;;5.90;84.30;;;;;;10866851;32;20143;-74
2022/12/19 06:37:00;;;;;;;13.18;8.68;;;6.00;84.30;;;;;;10866358;32;20020;-75
2022/12/19 06:43:02;;;;;;;14.70;10.52;;;6.10;84.80;;;;;;10866835;32;20192;-74
2022/12/19 06:49:04;;;;;;;13.73;8.75;;;6.10;84.90;;;;;;10866556;32;20074;-74
2022/12/19 06:55:06;;;;;;;20.12;14.48;;;6.00;84.70;;;;;;10882649;32;20410;-75
2022/12/19 07:01:28;;;;;;;16.65;12.02;;;6.00;84.80;;;;;;10903592;32;20042;-74
2022/12/19 07:07:30;;;;;;;12.82;9.82;;;6.10;84.60;;;;;;10868544;32;20356;-75
2022/12/19 07:13:32;;;;;;;13.23;8.48;;;6.00;84.40;;;;;;10865081;32;20034;-74
2022/12/19 07:19:34;;;;;;;11.60;9.15;;;5.90;84.30;;;;;;10876236;32;20078;-75
2022/12/19 07:25:38;;;;;;;14.93;10.75;;;5.90;84.50;;;;;;10865095;32;20038;-74
2022/12/19 07:31:40;;;;;;;15.80;10.27;;;6.10;84.90;;;;;;10865652;32;20054;-74
2022/12/19 07:37:42;;;;;;;14.87;10.27;;;6.20;84.80;;;;;;10865797;32;20024;-74
2022/12/19 07:43:47;;;;;;;14.50;11.88;;;6.30;85.40;;;;;;10852294;32;20023;-75
2022/12/19 07:49:49;;;;;;;17.12;12.27;;;6.50;85.20;;;;;;10872351;32;20019;-74
2022/12/19 07:55:52;;;;;;;16.80;12.37;;;6.50;84.90;;;;;;10872192;32;20428;-77
2022/12/19 08:01:55;;;;;;;17.20;12.57;;;6.50;85.00;;;;;;10867872;32;20016;-77
2022/12/19 08:07:57;;;;;;;25.48;17.85;;;6.50;85.00;;;;;;10871780;32;20016;-77
2022/12/19 08:13:59;;;;;;;25.20;15.65;;;6.60;84.90;;;;;;10858246;32;20326;-77
2022/12/19 08:20:02;;;;;;;23.52;15.43;;;6.50;84.90;;;;;;10867771;32;20389;-77
2022/12/19 08:26:07;;;;;;;17.48;12.00;;;6.60;84.90;;;;;;10872721;27;20050;-77
2022/12/19 08:32:34;;;;;;;15.65;11.80;;;6.70;84.90;;;;;;10869972;32;20035;-77
2022/12/19 08:38:40;;;;;;;21.52;15.27;;;6.90;84.70;;;;;;10857518;32;20044;-77
2022/12/19 08:44:42;;;;;;;15.02;11.18;;;6.90;84.60;;;;;;10870381;32;20023;-77
2022/12/19 08:51:06;;;;;;;19.70;12.93;;;6.70;84.80;;;;;;10870037;32;20024;-77
2022/12/19 08:57:08;;;;;;;14.05;10.52;;;6.70;85.00;;;;;;10855551;32;20023;-78
2022/12/19 09:03:10;;;;;;;16.55;11.88;;;6.80;85.10;;;;;;10869001;32;20061;-78
2022/12/19 09:09:12;;;;;;;16.67;11.73;;;6.90;85.80;;;;;;10872016;32;20026;-77
2022/12/19 09:15:14;;;;;;;21.20;13.55;;;7.20;85.50;;;;;;10906740;32;20020;-77
2022/12/19 09:21:17;;;;;;;18.95;13.00;;;7.20;85.40;;;;;;10906311;32;20023;-77
2022/12/19 09:27:19;;;;;;;16.20;12.05;;;7.00;85.50;;;;;;10872727;32;20042;-77
2022/12/19 09:33:22;;;;;;;13.52;9.32;;;7.30;85.80;;;;;;10854936;32;20047;-77
2022/12/19 09:39:24;;;;;;;17.08;12.20;;;7.60;86.00;;;;;;10868366;32;20011;-77
2022/12/19 09:45:48;;;;;;;15.13;9.98;;;7.70;85.90;;;;;;10868236;32;20058;-77
2022/12/19 09:51:50;;;;;;;12.23;8.60;;;7.80;86.00;;;;;;10867840;32;20024;-77
2022/12/19 09:58:12;;;;;;;14.10;9.52;;;7.90;85.90;;;;;;10867732;32;20330;-77
2022/12/19 10:04:17;;;;;;;15.07;9.32;;;7.90;86.00;;;;;;10865372;32;20330;-77
2022/12/19 10:10:49;;;;;;;15.55;10.07;;;8.00;86.10;;;;;;10866780;32;20032;-77
2022/12/19 10:17:30;;;;;;;15.55;9.63;;;8.10;85.90;;;;;;10865901;32;20050;-77
2022/12/19 10:23:45;;;;;;;18.87;11.05;;;8.20;85.90;;;;;;10904182;32;20023;-75
2022/12/19 10:30:13;;;;;;;12.07;8.32;;;8.20;86.00;;;;;;10903841;32;20024;-77
2022/12/19 10:36:15;;;;;;;12.77;9.10;;;8.30;86.10;;;;;;10886245;32;20043;-77
2022/12/19 10:42:32;;;;;;;20.33;12.88;;;8.40;86.00;;;;;;10903956;32;20019;-77
2022/12/19 10:48:34;;;;;;;11.30;8.15;;;8.40;85.90;;;;;;10902624;32;20447;-77
2022/12/19 10:54:36;;;;;;;13.65;9.80;;;8.40;85.50;;;;;;10890561;32;20393;-77
2022/12/19 11:01:09;;;;;;;15.05;9.75;;;8.00;86.10;;;;;;10903717;32;20054;-77
2022/12/19 11:07:19;;;;;;;13.07;9.07;;;8.00;86.50;;;;;;10890203;32;20019;-77
2022/12/19 11:13:44;;;;;;;15.52;11.95;;;7.70;86.40;;;;;;10889156;32;20428;-77
2022/12/19 11:19:46;;;;;;;12.32;7.68;;;7.80;86.90;;;;;;10906199;32;20020;-77
2022/12/19 11:25:57;;;;;;;19.50;12.00;;;7.80;86.30;;;;;;10892565;32;20065;-77
2022/12/19 11:32:00;;;;;;;15.45;9.45;;;7.80;87.20;;;;;;10910355;32;20333;-77
2022/12/19 11:38:04;;;;;;;16.10;8.82;;;7.80;86.60;;;;;;10909837;32;20397;-75
2022/12/19 11:44:28;;;;;;;9.57;6.45;;;7.60;87.10;;;;;;10909767;32;20019;-74
2022/12/19 11:50:34;;;;;;;15.20;7.22;;;7.80;87.40;;;;;;10905494;32;20390;-75
2022/12/19 11:56:36;;;;;;;10.32;6.97;;;7.80;86.90;;;;;;10909221;32;20016;-74
2022/12/19 12:02:55;;;;;;;14.82;9.30;;;7.90;87.10;;;;;;10909093;32;20023;-74
2022/12/19 12:09:15;;;;;;;12.45;8.93;;;7.90;87.30;;;;;;10891290;32;20028;-74
2022/12/19 12:15:26;;;;;;;12.65;8.57;;;8.30;86.70;;;;;;10870059;32;20043;-74
2022/12/19 12:21:50;;;;;;;11.85;7.78;;;8.20;86.20;;;;;;10870933;32;20023;-74
2022/12/19 12:28:20;;;;;;;13.40;9.55;;;7.80;86.90;;;;;;10871146;32;20024;-74
2022/12/19 12:35:00;;;;;;;13.50;9.50;;;8.00;87.70;;;;;;10870813;32;20050;-74
2022/12/19 12:42:02;;;;;;;14.03;10.33;;;7.70;86.50;;;;;;10870085;32;20028;-74
2022/12/19 12:48:18;;;;;;;11.90;7.30;;;7.40;87.60;;;;;;10701383;33;20428;-74
2022/12/19 12:54:24;;;;;;;10.57;7.00;;;7.70;87.50;;;;;;10682528;33;20068;-74
2022/12/19 13:00:34;;;;;;;15.95;10.35;;;7.60;87.50;;;;;;10683085;33;20451;-73
2022/12/19 13:06:50;;;;;;;13.10;9.45;;;7.50;87.70;;;;;;10683930;33;20026;-74
2022/12/19 13:13:07;;;;;;;13.60;9.82;;;7.60;87.90;;;;;;10682045;33;20084;-74
2022/12/19 13:19:19;;;;;;;16.65;10.80;;;7.70;87.70;;;;;;10695690;32;20306;-74
2022/12/19 13:25:33;;;;;;;14.18;9.63;;;8.10;88.10;;;;;;10865680;32;20025;-74
2022/12/19 13:31:35;;;;;;;15.50;11.12;;;8.80;87.70;;;;;;10868668;32;20385;-74
2022/12/19 13:37:37;;;;;;;13.38;9.50;;;9.20;86.80;;;;;;10868582;32;20046;-73
2022/12/19 13:43:47;;;;;;;19.25;9.73;;;9.00;86.50;;;;;;10867344;32;20034;-74
2022/12/19 13:49:49;;;;;;;16.25;8.55;;;8.70;86.80;;;;;;10868267;32;20066;-74
2022/12/19 13:56:03;;;;;;;11.25;7.20;;;8.30;87.10;;;;;;10863854;32;20020;-74
2022/12/19 14:02:22;;;;;;;12.10;6.95;;;7.90;87.60;;;;;;10867819;32;20457;-74
2022/12/19 14:08:27;;;;;;;10.98;6.75;;;7.60;88.30;;;;;;10867631;32;20015;-74
2022/12/19 14:21:06;;;;;;;10.05;6.40;;;8.10;88.80;;;;;;10868461;32;20024;-74
2022/12/19 14:27:16;;;;;;;15.35;10.30;;;8.20;87.80;;;;;;10868375;32;20019;-74
2022/12/19 14:33:25;;;;;;;9.48;6.47;;;8.20;87.90;;;;;;10866949;32;20027;-74
2022/12/19 14:39:32;;;;;;;20.85;13.98;;;8.20;88.00;;;;;;10862971;32;20027;-74
2022/12/19 14:45:40;;;;;;;15.45;9.95;;;8.10;88.30;;;;;;10866608;32;20027;-74
2022/12/19 14:51:42;;;;;;;10.10;6.18;;;8.20;88.00;;;;;;10866361;32;20016;-74
2022/12/19 14:57:44;;;;;;;16.00;11.43;;;7.90;88.10;;;;;;10873164;32;20042;-74
2022/12/19 15:04:01;;;;;;;13.05;8.95;;;7.90;88.30;;;;;;10873188;32;20110;-74
2022/12/19 15:10:20;;;;;;;26.90;14.30;;;7.70;88.30;;;;;;10873847;32;20023;-74
2022/12/19 15:16:45;;;;;;;22.62;14.02;;;8.10;88.50;;;;;;10873353;32;20020;-74
2022/12/19 15:22:47;;;;;;;17.65;12.55;;;8.60;86.90;;;;;;10871901;32;20027;-74
2022/12/19 15:28:51;;;;;;;14.77;10.50;;;8.80;86.30;;;;;;10873089;32;20016;-74
2022/12/19 15:34:53;;;;;;;17.37;13.68;;;9.00;86.10;;;;;;10872763;32;20024;-74
2022/12/19 15:41:04;;;;;;;24.25;16.12;;;8.90;86.10;;;;;;10872535;32;20385;-74
2022/12/19 15:47:27;;;;;;;30.35;17.75;;;8.80;85.70;;;;;;10859093;32;20078;-74
2022/12/19 15:53:31;;;;;;;24.83;16.08;;;8.60;85.60;;;;;;10858531;32;20036;-74
2022/12/19 15:59:40;;;;;;;30.08;18.95;;;8.50;85.40;;;;;;10872127;32;20028;-74
2022/12/19 16:05:43;;;;;;;;;;;8.50;84.90;;;;;;10871321;32;20058;-74
2022/12/19 16:11:45;;;;;;;24.60;14.10;;;8.50;85.00;;;;;;10871767;32;19942;-74
2022/12/19 16:17:49;;;;;;;21.17;14.38;;;8.50;84.90;;;;;;10871465;32;20055;-74
2022/12/19 16:23:53;;;;;;;18.40;12.13;;;8.40;84.60;;;;;;10874060;27;20066;-73
2022/12/19 16:30:01;;;;;;;20.10;13.13;;;8.30;84.40;;;;;;10844947;32;20032;-74
2022/12/19 16:36:03;;;;;;;14.57;10.23;;;8.20;84.30;;;;;;10870132;32;20054;-74
2022/12/19 16:42:15;;;;;;;21.67;14.98;;;8.10;84.10;;;;;;10857344;32;20436;-74
2022/12/19 16:48:25;;;;;;;17.17;12.25;;;7.90;84.40;;;;;;10870404;32;20058;-74
2022/12/19 16:54:27;;;;;;;27.20;18.95;;;7.90;84.20;;;;;;10856508;32;20071;-74
2022/12/19 17:00:29;;;;;;;20.70;13.57;;;7.80;84.10;;;;;;10869557;32;20027;-74
2022/12/19 17:06:34;;;;;;;20.75;14.52;;;7.80;84.00;;;;;;10875153;32;20035;-73
2022/12/19 17:12:38;;;;;;;25.20;18.30;;;7.80;84.10;;;;;;10906545;32;20443;-74
2022/12/19 17:18:42;;;;;;;23.35;16.92;;;7.70;84.00;;;;;;10891869;32;20042;-73
2022/12/19 17:24:46;;;;;;;20.75;15.38;;;7.70;83.80;;;;;;10906384;32;20053;-74
2022/12/19 17:30:52;;;;;;;23.33;15.85;;;7.60;83.60;;;;;;10892637;32;20377;-74
2022/12/19 17:36:55;;;;;;;16.75;12.50;;;7.50;83.50;;;;;;10906147;32;20357;-74
2022/12/19 17:42:58;;;;;;;16.42;10.95;;;7.50;83.40;;;;;;10905772;32;20394;-74
2022/12/19 17:49:00;;;;;;;16.52;10.82;;;7.50;83.40;;;;;;10902766;32;20397;-74
2022/12/19 17:55:22;;;;;;;22.48;16.90;;;7.50;83.30;;;;;;10905206;32;20023;-74
2022/12/19 18:01:24;;;;;;;22.40;16.58;;;7.40;83.30;;;;;;10891839;32;20046;-74
2022/12/19 18:07:27;;;;;;;22.05;17.52;;;7.40;83.20;;;;;;10902987;32;20050;-76
2022/12/19 18:13:30;;;;;;;18.83;14.13;;;7.50;82.90;;;;;;10904909;32;20026;-77
2022/12/19 18:19:33;;;;;;;18.90;14.40;;;7.40;82.80;;;;;;10904475;32;20409;-77
2022/12/19 18:25:35;;;;;;;25.37;18.67;;;7.40;82.80;;;;;;10904573;32;20023;-77
2022/12/19 18:31:38;;;;;;;26.45;20.85;;;7.30;82.70;;;;;;10890021;32;20066;-76
2022/12/19 18:37:40;;;;;;;26.35;20.67;;;7.20;82.80;;;;;;10903943;32;20031;-76
2022/12/19 18:43:43;;;;;;;31.58;22.08;;;7.20;82.70;;;;;;10900010;32;20023;-77
2022/12/19 18:49:45;;;;;;;23.48;17.87;;;7.20;82.70;;;;;;10890712;32;20046;-76
2022/12/19 18:55:49;;;;;;;24.75;19.40;;;7.20;82.60;;;;;;10903817;32;20046;-77
2022/12/19 19:01:54;;;;;;;27.05;22.13;;;7.20;82.70;;;;;;10890256;32;20356;-77
2022/12/19 19:07:57;;;;;;;40.85;28.08;;;7.10;82.70;;;;;;10902098;32;20436;-77
2022/12/19 19:13:59;;;;;;;25.55;21.02;;;7.10;82.70;;;;;;10902583;32;20036;-77
2022/12/19 19:20:02;;;;;;;32.00;24.63;;;7.10;82.50;;;;;;10902680;32;20038;-74
2022/12/19 19:26:04;;;;;;;55.12;38.88;;;7.10;82.50;;;;;;10903475;32;20023;-74
2022/12/19 19:32:07;;;;;;;39.65;28.55;;;7.00;82.50;;;;;;10903191;32;20077;-74
2022/12/19 19:38:09;;;;;;;40.53;31.92;;;7.00;82.70;;;;;;10903223;32;20070;-74
2022/12/19 19:44:11;;;;;;;38.30;28.73;;;6.90;82.70;;;;;;10909794;32;20390;-74
2022/12/19 19:50:18;;;;;;;34.78;27.98;;;6.90;82.60;;;;;;10909803;32;20053;-74
2022/12/19 19:56:20;;;;;;;37.30;30.58;;;6.90;82.40;;;;;;10908745;32;20042;-74
2022/12/19 20:02:23;;;;;;;31.00;23.95;;;6.80;82.40;;;;;;10909528;32;20046;-73
2022/12/19 20:08:25;;;;;;;28.30;24.45;;;6.70;82.50;;;;;;10909270;32;20042;-73
2022/12/19 20:14:27;;;;;;;28.08;21.30;;;6.70;82.60;;;;;;10909082;32;20440;-74
2022/12/19 20:20:31;;;;;;;34.28;24.85;;;6.60;82.60;;;;;;10908915;32;20381;-73
2022/12/19 20:26:34;;;;;;;40.15;31.25;;;6.60;82.50;;;;;;10908688;32;20333;-73
2022/12/19 20:32:35;;;;;;;32.53;27.70;;;6.60;82.50;;;;;;10908323;32;20046;-73
2022/12/19 20:38:38;;;;;;;37.38;26.05;;;6.60;82.30;;;;;;10894623;32;20067;-73
2022/12/19 20:44:40;;;;;;;40.50;29.58;;;6.60;82.30;;;;;;10908110;32;20034;-73
2022/12/19 20:50:42;;;;;;;32.50;24.45;;;6.60;82.20;;;;;;10889588;32;20039;-73
2022/12/19 20:56:44;;;;;;;40.92;29.95;;;6.60;82.10;;;;;;10894285;32;20024;-73
2022/12/19 21:02:47;;;;;;;31.37;25.30;;;6.40;82.50;;;;;;10907459;32;20046;-73
2022/12/19 21:08:49;;;;;;;29.52;26.08;;;6.40;82.50;;;;;;10893829;32;20015;-73
2022/12/19 21:14:51;;;;;;;37.83;25.80;;;6.40;82.30;;;;;;10906941;32;20045;-73
2022/12/19 21:20:54;;;;;;;37.58;27.90;;;6.40;82.30;;;;;;10906638;32;20024;-73
2022/12/19 21:26:56;;;;;;;31.58;25.05;;;6.30;82.20;;;;;;10906459;32;20019;-73
2022/12/19 21:32:58;;;;;;;30.77;23.27;;;6.30;82.30;;;;;;10906205;32;20027;-73
2022/12/19 21:39:01;;;;;;;37.92;29.48;;;6.30;82.20;;;;;;10892583;32;20035;-75
2022/12/19 21:45:03;;;;;;;45.80;33.13;;;6.20;82.00;;;;;;10892538;32;20307;-74
2022/12/19 21:51:06;;;;;;;48.83;35.08;;;6.20;82.20;;;;;;10905657;32;20023;-77
2022/12/19 21:57:09;;;;;;;48.60;38.78;;;6.20;82.10;;;;;;10905356;32;20049;-78
2022/12/19 22:03:11;;;;;;;45.92;33.20;;;6.10;82.10;;;;;;10904594;32;20015;-78
2022/12/19 22:09:17;;;;;;;49.30;38.13;;;6.10;82.10;;;;;;10891274;32;20072;-78
2022/12/19 22:15:19;;;;;;;47.15;37.05;;;6.10;82.10;;;;;;10891519;32;20421;-77
2022/12/19 22:21:22;;;;;;;34.72;27.98;;;6.20;81.90;;;;;;10904891;32;20058;-78
2022/12/19 22:27:24;;;;;;;42.67;29.27;;;6.10;82.10;;;;;;10904545;32;20019;-78
2022/12/19 22:33:28;;;;;;;41.53;36.30;;;6.10;82.20;;;;;;10902594;32;20031;-78
2022/12/19 22:39:30;;;;;;;37.28;29.52;;;5.90;82.20;;;;;;10890982;32;20007;-78
2022/12/19 22:45:32;;;;;;;61.42;39.50;;;5.80;82.30;;;;;;10890587;32;20307;-78
2022/12/19 22:51:35;;;;;;;54.13;36.70;;;5.90;82.40;;;;;;10903962;32;20020;-78
2022/12/19 22:57:37;;;;;;;58.55;42.45;;;5.80;82.60;;;;;;10904023;32;20077;-78
2022/12/19 23:03:39;;;;;;;47.08;36.00;;;5.80;82.60;;;;;;10890304;32;20050;-78
2022/12/19 23:09:41;;;;;;;48.53;37.97;;;5.90;82.70;;;;;;10903802;32;20321;-78
2022/12/19 23:15:44;;;;;;;45.55;35.13;;;5.90;82.50;;;;;;10906444;32;20015;-78
2022/12/19 23:21:46;;;;;;;41.75;34.97;;;5.80;82.50;;;;;;10910891;32;20050;-78
2022/12/19 23:27:47;;;;;;;37.28;30.95;;;5.70;82.60;;;;;;10910847;32;20069;-77
2022/12/19 23:33:50;;;;;;;37.22;31.33;;;5.80;83.00;;;;;;10910525;32;20027;-77
2022/12/19 23:39:52;;;;;;;40.28;30.45;;;5.80;82.80;;;;;;10910389;32;20416;-77
2022/12/19 23:46:14;;;;;;;37.65;32.60;;;5.50;82.90;;;;;;10910232;32;20406;-78
2022/12/19 23:52:19;;;;;;;36.58;31.00;;;5.60;83.60;;;;;;10896837;32;20007;-77
2022/12/19 23:58:22;;;;;;;39.90;31.37;;;5.60;83.30;;;;;;10896361;32;20061;-77
